sensor_id;sensor_type;location;lat;lon;timestamp;P1;durP1;ratioP1;P2;durP2;ratioP2
40154;SDS011;25875;48.202;16.334;2022-12-29T00:01:47;21.02;;;15.85;;
40154;SDS011;25875;48.202;16.334;2022-12-29T00:04:14;20.58;;;15.23;;
40154;SDS011;25875;48.202;16.334;2022-12-29T00:06:42;22.40;;;16.42;;
40154;SDS011;25875;48.202;16.334;2022-12-29T00:09:10;22.50;;;14.93;;
40154;SDS011;25875;48.202;16.334;2022-12-29T00:11:36;23.83;;;17.23;;
40154;SDS011;25875;48.202;16.334;2022-12-29T00:14:05;23.10;;;15.23;;
40154;SDS011;25875;48.202;16.334;2022-12-29T00:16:49;19.63;;;15.35;;
40154;SDS011;25875;48.202;16.334;2022-12-29T00:19:17;20.58;;;15.60;;
40154;SDS011;25875;48.202;16.334;2022-12-29T00:21:58;22.45;;;16.05;;
40154;SDS011;25875;48.202;16.334;2022-12-29T00:24:43;24.08;;;14.30;;
40154;SDS011;25875;48.202;16.334;2022-12-29T00:27:28;19.15;;;14.75;;
40154;SDS011;25875;48.202;16.334;2022-12-29T00:30:14;20.33;;;13.15;;
40154;SDS011;25875;48.202;16.334;2022-12-29T00:33:04;17.27;;;13.45;;
40154;SDS011;25875;48.202;16.334;2022-12-29T00:35:53;18.67;;;13.02;;
40154;SDS011;25875;48.202;16.334;2022-12-29T00:38:24;16.35;;;11.55;;
40154;SDS011;25875;48.202;16.334;2022-12-29T00:41:08;17.55;;;11.40;;
40154;SDS011;25875;48.202;16.334;2022-12-29T00:43:52;15.10;;;10.17;;
40154;SDS011;25875;48.202;16.334;2022-12-29T00:46:31;12.30;;;9.85;;
40154;SDS011;25875;48.202;16.334;2022-12-29T00:49:00;11.77;;;9.45;;
40154;SDS011;25875;48.202;16.334;2022-12-29T00:51:45;11.32;;;9.40;;
40154;SDS011;25875;48.202;16.334;2022-12-29T00:54:12;11.43;;;9.20;;
40154;SDS011;25875;48.202;16.334;2022-12-29T00:56:39;9.98;;;8.70;;
40154;SDS011;25875;48.202;16.334;2022-12-29T00:59:07;13.13;;;8.73;;
40154;SDS011;25875;48.202;16.334;2022-12-29T01:01:35;15.02;;;9.27;;
40154;SDS011;25875;48.202;16.334;2022-12-29T01:04:04;17.50;;;9.60;;
40154;SDS011;25875;48.202;16.334;2022-12-29T01:06:32;10.88;;;9.07;;
40154;SDS011;25875;48.202;16.334;2022-12-29T01:08:59;13.93;;;9.63;;
40154;SDS011;25875;48.202;16.334;2022-12-29T01:11:44;11.98;;;8.60;;
40154;SDS011;25875;48.202;16.334;2022-12-29T01:14:10;13.02;;;9.70;;
40154;SDS011;25875;48.202;16.334;2022-12-29T01:16:37;12.80;;;9.23;;
40154;SDS011;25875;48.202;16.334;2022-12-29T01:19:06;12.38;;;10.70;;
40154;SDS011;25875;48.202;16.334;2022-12-29T01:21:33;14.05;;;9.68;;
40154;SDS011;25875;48.202;16.334;2022-12-29T01:23:59;14.82;;;10.00;;
40154;SDS011;25875;48.202;16.334;2022-12-29T01:26:26;13.70;;;9.68;;
40154;SDS011;25875;48.202;16.334;2022-12-29T01:28:53;14.68;;;11.15;;
40154;SDS011;25875;48.202;16.334;2022-12-29T01:31:20;16.95;;;10.48;;
40154;SDS011;25875;48.202;16.334;2022-12-29T01:33:46;14.25;;;10.95;;
40154;SDS011;25875;48.202;16.334;2022-12-29T01:36:16;18.83;;;12.65;;
40154;SDS011;25875;48.202;16.334;2022-12-29T01:38:44;14.60;;;11.45;;
40154;SDS011;25875;48.202;16.334;2022-12-29T01:41:12;15.52;;;11.35;;
40154;SDS011;25875;48.202;16.334;2022-12-29T01:43:40;16.40;;;12.38;;
40154;SDS011;25875;48.202;16.334;2022-12-29T01:46:12;15.82;;;11.80;;
40154;SDS011;25875;48.202;16.334;2022-12-29T01:48:45;14.63;;;11.18;;
40154;SDS011;25875;48.202;16.334;2022-12-29T01:51:15;16.73;;;11.98;;
40154;SDS011;25875;48.202;16.334;2022-12-29T01:53:44;15.80;;;10.63;;
40154;SDS011;25875;48.202;16.334;2022-12-29T01:56:12;15.88;;;11.70;;
40154;SDS011;25875;48.202;16.334;2022-12-29T01:58:44;15.80;;;11.13;;
40154;SDS011;25875;48.202;16.334;2022-12-29T02:01:14;15.80;;;11.27;;
40154;SDS011;25875;48.202;16.334;2022-12-29T02:03:43;14.60;;;10.63;;
40154;SDS011;25875;48.202;16.334;2022-12-29T02:06:10;16.35;;;12.48;;
40154;SDS011;25875;48.202;16.334;2022-12-29T02:08:43;15.05;;;11.85;;
40154;SDS011;25875;48.202;16.334;2022-12-29T02:11:13;15.48;;;11.73;;
40154;SDS011;25875;48.202;16.334;2022-12-29T02:13:41;12.93;;;11.02;;
40154;SDS011;25875;48.202;16.334;2022-12-29T02:16:12;13.88;;;10.80;;
40154;SDS011;25875;48.202;16.334;2022-12-29T02:18:48;16.13;;;11.32;;
40154;SDS011;25875;48.202;16.334;2022-12-29T02:27:35;14.98;;;10.25;;
40154;SDS011;25875;48.202;16.334;2022-12-29T02:30:29;12.73;;;9.98;;
40154;SDS011;25875;48.202;16.334;2022-12-29T02:33:12;13.02;;;9.70;;
40154;SDS011;25875;48.202;16.334;2022-12-29T02:35:50;12.93;;;10.48;;
40154;SDS011;25875;48.202;16.334;2022-12-29T02:40:57;13.75;;;9.65;;
40154;SDS011;25875;48.202;16.334;2022-12-29T02:43:33;16.40;;;11.00;;
40154;SDS011;25875;48.202;16.334;2022-12-29T02:46:08;14.48;;;11.35;;
40154;SDS011;25875;48.202;16.334;2022-12-29T02:48:42;15.23;;;10.93;;
40154;SDS011;25875;48.202;16.334;2022-12-29T02:51:12;12.05;;;9.40;;
40154;SDS011;25875;48.202;16.334;2022-12-29T02:53:44;13.45;;;10.48;;
40154;SDS011;25875;48.202;16.334;2022-12-29T02:56:38;13.32;;;10.20;;
40154;SDS011;25875;48.202;16.334;2022-12-29T02:59:05;14.07;;;10.60;;
40154;SDS011;25875;48.202;16.334;2022-12-29T03:01:37;13.57;;;10.35;;
40154;SDS011;25875;48.202;16.334;2022-12-29T03:04:39;12.65;;;10.00;;
40154;SDS011;25875;48.202;16.334;2022-12-29T03:07:16;12.77;;;10.27;;
40154;SDS011;25875;48.202;16.334;2022-12-29T03:09:50;13.70;;;9.85;;
40154;SDS011;25875;48.202;16.334;2022-12-29T03:12:24;13.02;;;10.85;;
40154;SDS011;25875;48.202;16.334;2022-12-29T03:15:15;13.63;;;10.00;;
40154;SDS011;25875;48.202;16.334;2022-12-29T03:18:08;13.80;;;11.20;;
40154;SDS011;25875;48.202;16.334;2022-12-29T03:20:42;14.20;;;11.10;;
40154;SDS011;25875;48.202;16.334;2022-12-29T03:23:16;13.05;;;10.60;;
40154;SDS011;25875;48.202;16.334;2022-12-29T03:25:46;16.15;;;11.43;;
40154;SDS011;25875;48.202;16.334;2022-12-29T03:28:18;19.02;;;10.80;;
40154;SDS011;25875;48.202;16.334;2022-12-29T03:30:49;16.35;;;12.35;;
40154;SDS011;25875;48.202;16.334;2022-12-29T03:33:18;13.65;;;11.10;;
40154;SDS011;25875;48.202;16.334;2022-12-29T03:35:49;13.80;;;11.10;;
40154;SDS011;25875;48.202;16.334;2022-12-29T03:38:18;14.45;;;10.73;;
40154;SDS011;25875;48.202;16.334;2022-12-29T03:40:50;14.88;;;10.30;;
40154;SDS011;25875;48.202;16.334;2022-12-29T03:43:19;14.75;;;11.15;;
40154;SDS011;25875;48.202;16.334;2022-12-29T03:45:46;13.55;;;10.68;;
40154;SDS011;25875;48.202;16.334;2022-12-29T03:48:13;11.15;;;9.88;;
40154;SDS011;25875;48.202;16.334;2022-12-29T03:50:41;13.80;;;10.05;;
40154;SDS011;25875;48.202;16.334;2022-12-29T03:53:08;12.27;;;10.70;;
40154;SDS011;25875;48.202;16.334;2022-12-29T03:55:34;12.68;;;10.07;;
40154;SDS011;25875;48.202;16.334;2022-12-29T03:58:01;13.98;;;10.40;;
40154;SDS011;25875;48.202;16.334;2022-12-29T04:00:28;9.93;;;8.57;;
40154;SDS011;25875;48.202;16.334;2022-12-29T04:02:55;12.15;;;9.70;;
40154;SDS011;25875;48.202;16.334;2022-12-29T04:05:22;13.98;;;10.48;;
40154;SDS011;25875;48.202;16.334;2022-12-29T04:07:50;16.08;;;11.40;;
40154;SDS011;25875;48.202;16.334;2022-12-29T04:10:17;10.98;;;8.20;;
40154;SDS011;25875;48.202;16.334;2022-12-29T04:12:44;12.15;;;9.13;;
40154;SDS011;25875;48.202;16.334;2022-12-29T04:15:11;12.90;;;9.90;;
40154;SDS011;25875;48.202;16.334;2022-12-29T04:17:38;14.00;;;9.60;;
40154;SDS011;25875;48.202;16.334;2022-12-29T04:20:06;10.68;;;9.05;;
40154;SDS011;25875;48.202;16.334;2022-12-29T04:22:58;12.80;;;9.55;;
40154;SDS011;25875;48.202;16.334;2022-12-29T04:25:25;13.10;;;10.00;;
40154;SDS011;25875;48.202;16.334;2022-12-29T04:27:53;14.02;;;8.95;;
40154;SDS011;25875;48.202;16.334;2022-12-29T04:30:21;12.45;;;9.70;;
40154;SDS011;25875;48.202;16.334;2022-12-29T04:33:06;11.57;;;9.43;;
40154;SDS011;25875;48.202;16.334;2022-12-29T04:35:33;13.25;;;9.80;;
40154;SDS011;25875;48.202;16.334;2022-12-29T04:38:04;12.02;;;8.98;;
40154;SDS011;25875;48.202;16.334;2022-12-29T04:40:31;11.48;;;8.65;;
40154;SDS011;25875;48.202;16.334;2022-12-29T04:42:58;11.65;;;10.35;;
40154;SDS011;25875;48.202;16.334;2022-12-29T04:45:24;10.95;;;9.80;;
40154;SDS011;25875;48.202;16.334;2022-12-29T04:47:51;13.68;;;9.50;;
40154;SDS011;25875;48.202;16.334;2022-12-29T04:50:18;11.27;;;9.88;;
40154;SDS011;25875;48.202;16.334;2022-12-29T04:52:45;11.05;;;8.98;;
40154;SDS011;25875;48.202;16.334;2022-12-29T04:55:13;14.63;;;10.25;;
40154;SDS011;25875;48.202;16.334;2022-12-29T04:57:41;13.85;;;9.02;;
40154;SDS011;25875;48.202;16.334;2022-12-29T05:00:08;10.90;;;8.82;;
40154;SDS011;25875;48.202;16.334;2022-12-29T05:02:37;13.05;;;10.10;;
40154;SDS011;25875;48.202;16.334;2022-12-29T05:05:04;16.10;;;11.00;;
40154;SDS011;25875;48.202;16.334;2022-12-29T05:07:32;11.18;;;9.25;;
40154;SDS011;25875;48.202;16.334;2022-12-29T05:09:59;13.20;;;10.35;;
40154;SDS011;25875;48.202;16.334;2022-12-29T05:12:38;10.50;;;8.63;;
40154;SDS011;25875;48.202;16.334;2022-12-29T05:15:06;15.02;;;10.27;;
40154;SDS011;25875;48.202;16.334;2022-12-29T05:17:34;12.13;;;9.98;;
40154;SDS011;25875;48.202;16.334;2022-12-29T05:20:01;12.65;;;8.77;;
40154;SDS011;25875;48.202;16.334;2022-12-29T05:22:29;11.35;;;9.98;;
40154;SDS011;25875;48.202;16.334;2022-12-29T05:24:56;12.70;;;9.43;;
40154;SDS011;25875;48.202;16.334;2022-12-29T05:27:23;11.73;;;9.93;;
40154;SDS011;25875;48.202;16.334;2022-12-29T05:29:51;13.90;;;10.55;;
40154;SDS011;25875;48.202;16.334;2022-12-29T05:32:18;12.73;;;9.30;;
40154;SDS011;25875;48.202;16.334;2022-12-29T05:34:45;14.15;;;9.77;;
40154;SDS011;25875;48.202;16.334;2022-12-29T05:37:12;13.25;;;10.05;;
40154;SDS011;25875;48.202;16.334;2022-12-29T05:39:39;13.88;;;10.25;;
40154;SDS011;25875;48.202;16.334;2022-12-29T05:42:06;12.55;;;9.07;;
40154;SDS011;25875;48.202;16.334;2022-12-29T05:44:33;13.48;;;10.05;;
40154;SDS011;25875;48.202;16.334;2022-12-29T05:47:02;12.13;;;8.98;;
40154;SDS011;25875;48.202;16.334;2022-12-29T05:49:30;12.95;;;9.73;;
40154;SDS011;25875;48.202;16.334;2022-12-29T05:51:59;12.63;;;10.50;;
40154;SDS011;25875;48.202;16.334;2022-12-29T05:54:27;12.30;;;9.98;;
40154;SDS011;25875;48.202;16.334;2022-12-29T05:56:56;12.88;;;10.10;;
40154;SDS011;25875;48.202;16.334;2022-12-29T05:59:25;13.23;;;10.80;;
40154;SDS011;25875;48.202;16.334;2022-12-29T06:01:52;12.07;;;9.60;;
40154;SDS011;25875;48.202;16.334;2022-12-29T06:04:20;12.90;;;9.98;;
40154;SDS011;25875;48.202;16.334;2022-12-29T06:06:47;12.63;;;9.38;;
40154;SDS011;25875;48.202;16.334;2022-12-29T06:09:13;14.60;;;10.88;;
40154;SDS011;25875;48.202;16.334;2022-12-29T06:11:40;13.65;;;10.60;;
40154;SDS011;25875;48.202;16.334;2022-12-29T06:14:08;14.40;;;11.07;;
40154;SDS011;25875;48.202;16.334;2022-12-29T06:16:34;12.13;;;10.55;;
40154;SDS011;25875;48.202;16.334;2022-12-29T06:19:02;13.55;;;11.45;;
40154;SDS011;25875;48.202;16.334;2022-12-29T06:21:30;12.75;;;10.15;;
40154;SDS011;25875;48.202;16.334;2022-12-29T06:23:57;14.02;;;10.77;;
40154;SDS011;25875;48.202;16.334;2022-12-29T06:26:24;11.95;;;10.30;;
40154;SDS011;25875;48.202;16.334;2022-12-29T06:28:50;11.65;;;10.45;;
40154;SDS011;25875;48.202;16.334;2022-12-29T06:31:17;13.07;;;10.82;;
40154;SDS011;25875;48.202;16.334;2022-12-29T06:33:44;15.85;;;12.60;;
40154;SDS011;25875;48.202;16.334;2022-12-29T06:36:10;14.02;;;11.43;;
40154;SDS011;25875;48.202;16.334;2022-12-29T06:38:40;14.57;;;11.93;;
40154;SDS011;25875;48.202;16.334;2022-12-29T06:41:07;15.10;;;12.43;;
40154;SDS011;25875;48.202;16.334;2022-12-29T06:43:34;14.60;;;11.77;;
40154;SDS011;25875;48.202;16.334;2022-12-29T06:46:03;15.38;;;12.15;;
40154;SDS011;25875;48.202;16.334;2022-12-29T06:48:30;17.30;;;13.85;;
40154;SDS011;25875;48.202;16.334;2022-12-29T06:50:57;20.65;;;14.60;;
40154;SDS011;25875;48.202;16.334;2022-12-29T06:53:23;21.88;;;13.82;;
40154;SDS011;25875;48.202;16.334;2022-12-29T06:55:52;21.30;;;14.60;;
40154;SDS011;25875;48.202;16.334;2022-12-29T06:58:19;18.38;;;13.93;;
40154;SDS011;25875;48.202;16.334;2022-12-29T07:00:45;18.63;;;14.38;;
40154;SDS011;25875;48.202;16.334;2022-12-29T07:03:12;19.33;;;14.25;;
40154;SDS011;25875;48.202;16.334;2022-12-29T07:05:39;18.92;;;14.00;;
40154;SDS011;25875;48.202;16.334;2022-12-29T07:08:06;20.15;;;14.45;;
40154;SDS011;25875;48.202;16.334;2022-12-29T07:10:33;20.25;;;14.13;;
40154;SDS011;25875;48.202;16.334;2022-12-29T07:13:01;19.35;;;14.07;;
40154;SDS011;25875;48.202;16.334;2022-12-29T07:15:28;25.15;;;14.90;;
40154;SDS011;25875;48.202;16.334;2022-12-29T07:17:55;21.52;;;15.18;;
40154;SDS011;25875;48.202;16.334;2022-12-29T07:20:21;19.30;;;14.27;;
40154;SDS011;25875;48.202;16.334;2022-12-29T07:22:48;17.50;;;14.35;;
40154;SDS011;25875;48.202;16.334;2022-12-29T07:25:15;18.17;;;13.23;;
40154;SDS011;25875;48.202;16.334;2022-12-29T07:27:42;17.45;;;12.85;;
40154;SDS011;25875;48.202;16.334;2022-12-29T07:30:11;19.08;;;12.30;;
40154;SDS011;25875;48.202;16.334;2022-12-29T07:32:38;22.10;;;15.35;;
40154;SDS011;25875;48.202;16.334;2022-12-29T07:35:05;18.25;;;13.90;;
40154;SDS011;25875;48.202;16.334;2022-12-29T07:37:34;17.73;;;13.07;;
40154;SDS011;25875;48.202;16.334;2022-12-29T07:40:01;20.10;;;13.95;;
40154;SDS011;25875;48.202;16.334;2022-12-29T07:42:29;21.85;;;14.48;;
40154;SDS011;25875;48.202;16.334;2022-12-29T07:44:56;18.70;;;14.52;;
40154;SDS011;25875;48.202;16.334;2022-12-29T07:47:24;18.17;;;12.85;;
40154;SDS011;25875;48.202;16.334;2022-12-29T07:49:51;22.00;;;13.13;;
40154;SDS011;25875;48.202;16.334;2022-12-29T07:52:18;23.13;;;14.75;;
40154;SDS011;25875;48.202;16.334;2022-12-29T07:54:45;19.77;;;13.02;;
40154;SDS011;25875;48.202;16.334;2022-12-29T07:57:12;21.08;;;13.52;;
40154;SDS011;25875;48.202;16.334;2022-12-29T07:59:39;19.90;;;13.52;;
40154;SDS011;25875;48.202;16.334;2022-12-29T08:02:05;22.50;;;15.23;;
40154;SDS011;25875;48.202;16.334;2022-12-29T08:04:34;21.88;;;16.05;;
40154;SDS011;25875;48.202;16.334;2022-12-29T08:07:00;22.25;;;15.75;;
40154;SDS011;25875;48.202;16.334;2022-12-29T08:09:27;23.52;;;15.75;;
40154;SDS011;25875;48.202;16.334;2022-12-29T08:11:54;24.63;;;17.02;;
40154;SDS011;25875;48.202;16.334;2022-12-29T08:14:21;26.13;;;17.25;;
40154;SDS011;25875;48.202;16.334;2022-12-29T08:16:47;23.63;;;16.55;;
40154;SDS011;25875;48.202;16.334;2022-12-29T08:19:14;26.55;;;17.10;;
40154;SDS011;25875;48.202;16.334;2022-12-29T08:21:42;23.08;;;16.38;;
40154;SDS011;25875;48.202;16.334;2022-12-29T08:24:09;25.98;;;17.02;;
40154;SDS011;25875;48.202;16.334;2022-12-29T08:26:36;25.40;;;15.82;;
40154;SDS011;25875;48.202;16.334;2022-12-29T08:29:03;25.45;;;16.90;;
40154;SDS011;25875;48.202;16.334;2022-12-29T08:31:29;24.92;;;18.08;;
40154;SDS011;25875;48.202;16.334;2022-12-29T08:33:56;28.48;;;17.33;;
40154;SDS011;25875;48.202;16.334;2022-12-29T08:36:25;25.67;;;16.52;;
40154;SDS011;25875;48.202;16.334;2022-12-29T08:38:53;28.23;;;18.38;;
40154;SDS011;25875;48.202;16.334;2022-12-29T08:41:20;22.30;;;15.05;;
40154;SDS011;25875;48.202;16.334;2022-12-29T08:43:46;28.48;;;17.75;;
40154;SDS011;25875;48.202;16.334;2022-12-29T08:46:14;23.20;;;13.60;;
40154;SDS011;25875;48.202;16.334;2022-12-29T08:48:41;26.77;;;15.50;;
40154;SDS011;25875;48.202;16.334;2022-12-29T08:51:08;22.90;;;15.57;;
40154;SDS011;25875;48.202;16.334;2022-12-29T08:53:35;24.45;;;15.38;;
40154;SDS011;25875;48.202;16.334;2022-12-29T08:56:04;27.27;;;15.88;;
40154;SDS011;25875;48.202;16.334;2022-12-29T08:58:31;24.48;;;14.73;;
40154;SDS011;25875;48.202;16.334;2022-12-29T09:00:58;22.65;;;15.18;;
40154;SDS011;25875;48.202;16.334;2022-12-29T09:03:25;28.80;;;16.83;;
40154;SDS011;25875;48.202;16.334;2022-12-29T09:05:53;25.83;;;17.02;;
40154;SDS011;25875;48.202;16.334;2022-12-29T09:08:21;27.05;;;16.92;;
40154;SDS011;25875;48.202;16.334;2022-12-29T09:10:48;25.95;;;17.55;;
40154;SDS011;25875;48.202;16.334;2022-12-29T09:13:17;25.08;;;15.75;;
40154;SDS011;25875;48.202;16.334;2022-12-29T09:15:45;23.23;;;15.77;;
40154;SDS011;25875;48.202;16.334;2022-12-29T09:18:12;23.88;;;16.05;;
40154;SDS011;25875;48.202;16.334;2022-12-29T09:20:38;22.88;;;15.02;;
40154;SDS011;25875;48.202;16.334;2022-12-29T09:23:05;24.25;;;16.58;;
40154;SDS011;25875;48.202;16.334;2022-12-29T09:25:32;23.33;;;16.02;;
40154;SDS011;25875;48.202;16.334;2022-12-29T09:27:59;22.30;;;14.15;;
40154;SDS011;25875;48.202;16.334;2022-12-29T09:30:31;26.35;;;14.85;;
40154;SDS011;25875;48.202;16.334;2022-12-29T09:32:57;22.98;;;15.80;;
40154;SDS011;25875;48.202;16.334;2022-12-29T09:35:24;20.40;;;13.40;;
40154;SDS011;25875;48.202;16.334;2022-12-29T09:37:51;21.13;;;15.68;;
40154;SDS011;25875;48.202;16.334;2022-12-29T09:40:27;22.13;;;14.98;;
40154;SDS011;25875;48.202;16.334;2022-12-29T09:45:54;25.95;;;16.98;;
40154;SDS011;25875;48.202;16.334;2022-12-29T09:48:27;23.35;;;15.15;;
40154;SDS011;25875;48.202;16.334;2022-12-29T09:50:59;23.20;;;14.98;;
40154;SDS011;25875;48.202;16.334;2022-12-29T09:53:30;21.65;;;15.15;;
40154;SDS011;25875;48.202;16.334;2022-12-29T09:56:03;22.33;;;16.30;;
40154;SDS011;25875;48.202;16.334;2022-12-29T09:58:38;24.58;;;17.10;;
40154;SDS011;25875;48.202;16.334;2022-12-29T10:01:13;25.40;;;15.93;;
40154;SDS011;25875;48.202;16.334;2022-12-29T10:03:51;23.75;;;15.57;;
40154;SDS011;25875;48.202;16.334;2022-12-29T10:06:20;23.98;;;16.27;;
40154;SDS011;25875;48.202;16.334;2022-12-29T10:08:52;22.83;;;15.32;;
40154;SDS011;25875;48.202;16.334;2022-12-29T10:11:28;25.88;;;17.83;;
40154;SDS011;25875;48.202;16.334;2022-12-29T10:14:09;24.10;;;16.15;;
40154;SDS011;25875;48.202;16.334;2022-12-29T10:16:50;24.27;;;15.52;;
40154;SDS011;25875;48.202;16.334;2022-12-29T10:19:30;24.20;;;16.80;;
40154;SDS011;25875;48.202;16.334;2022-12-29T10:22:07;23.30;;;15.65;;
40154;SDS011;25875;48.202;16.334;2022-12-29T10:24:42;30.92;;;18.10;;
40154;SDS011;25875;48.202;16.334;2022-12-29T10:27:13;27.63;;;19.23;;
40154;SDS011;25875;48.202;16.334;2022-12-29T10:29:43;22.75;;;14.93;;
40154;SDS011;25875;48.202;16.334;2022-12-29T10:32:19;27.88;;;18.00;;
40154;SDS011;25875;48.202;16.334;2022-12-29T10:34:53;25.02;;;17.52;;
40154;SDS011;25875;48.202;16.334;2022-12-29T10:37:27;24.95;;;16.92;;
40154;SDS011;25875;48.202;16.334;2022-12-29T10:39:59;25.90;;;15.88;;
40154;SDS011;25875;48.202;16.334;2022-12-29T10:42:32;25.15;;;17.23;;
40154;SDS011;25875;48.202;16.334;2022-12-29T10:45:04;22.35;;;15.57;;
40154;SDS011;25875;48.202;16.334;2022-12-29T10:47:34;23.15;;;17.77;;
40154;SDS011;25875;48.202;16.334;2022-12-29T10:50:19;23.52;;;15.48;;
40154;SDS011;25875;48.202;16.334;2022-12-29T10:52:46;24.42;;;17.65;;
40154;SDS011;25875;48.202;16.334;2022-12-29T10:55:15;25.50;;;16.48;;
40154;SDS011;25875;48.202;16.334;2022-12-29T10:57:46;23.25;;;16.30;;
40154;SDS011;25875;48.202;16.334;2022-12-29T11:00:15;27.10;;;15.73;;
40154;SDS011;25875;48.202;16.334;2022-12-29T11:03:01;25.30;;;16.73;;
40154;SDS011;25875;48.202;16.334;2022-12-29T11:05:37;27.42;;;17.60;;
40154;SDS011;25875;48.202;16.334;2022-12-29T11:08:12;23.67;;;17.33;;
40154;SDS011;25875;48.202;16.334;2022-12-29T11:10:43;26.75;;;16.70;;
40154;SDS011;25875;48.202;16.334;2022-12-29T11:13:13;24.75;;;17.60;;
40154;SDS011;25875;48.202;16.334;2022-12-29T11:15:41;26.65;;;16.90;;
40154;SDS011;25875;48.202;16.334;2022-12-29T11:18:21;31.90;;;19.70;;
40154;SDS011;25875;48.202;16.334;2022-12-29T11:20:49;27.55;;;17.60;;
40154;SDS011;25875;48.202;16.334;2022-12-29T11:23:27;27.30;;;18.33;;
40154;SDS011;25875;48.202;16.334;2022-12-29T11:26:07;26.27;;;18.10;;
40154;SDS011;25875;48.202;16.334;2022-12-29T11:31:09;29.08;;;19.05;;
40154;SDS011;25875;48.202;16.334;2022-12-29T11:33:42;26.48;;;18.35;;
40154;SDS011;25875;48.202;16.334;2022-12-29T11:36:10;29.90;;;19.20;;
40154;SDS011;25875;48.202;16.334;2022-12-29T11:38:40;24.17;;;17.80;;
40154;SDS011;25875;48.202;16.334;2022-12-29T11:41:12;28.13;;;18.02;;
40154;SDS011;25875;48.202;16.334;2022-12-29T11:43:45;29.98;;;18.63;;
40154;SDS011;25875;48.202;16.334;2022-12-29T11:46:14;26.35;;;18.33;;
40154;SDS011;25875;48.202;16.334;2022-12-29T11:48:47;27.10;;;17.13;;
40154;SDS011;25875;48.202;16.334;2022-12-29T11:51:20;25.58;;;17.45;;
40154;SDS011;25875;48.202;16.334;2022-12-29T11:53:50;25.50;;;17.48;;
40154;SDS011;25875;48.202;16.334;2022-12-29T11:56:20;25.60;;;17.77;;
40154;SDS011;25875;48.202;16.334;2022-12-29T11:58:57;29.05;;;18.30;;
40154;SDS011;25875;48.202;16.334;2022-12-29T12:01:25;24.63;;;16.55;;
40154;SDS011;25875;48.202;16.334;2022-12-29T12:04:04;25.73;;;17.95;;
40154;SDS011;25875;48.202;16.334;2022-12-29T12:06:36;28.15;;;18.85;;
40154;SDS011;25875;48.202;16.334;2022-12-29T12:09:14;27.45;;;18.17;;
40154;SDS011;25875;48.202;16.334;2022-12-29T12:11:47;27.25;;;18.15;;
40154;SDS011;25875;48.202;16.334;2022-12-29T12:14:19;27.13;;;18.35;;
40154;SDS011;25875;48.202;16.334;2022-12-29T12:16:50;28.50;;;18.40;;
40154;SDS011;25875;48.202;16.334;2022-12-29T12:19:26;29.58;;;19.00;;
40154;SDS011;25875;48.202;16.334;2022-12-29T12:22:01;28.80;;;21.27;;
40154;SDS011;25875;48.202;16.334;2022-12-29T12:24:36;29.15;;;18.55;;
40154;SDS011;25875;48.202;16.334;2022-12-29T12:27:09;32.30;;;19.90;;
40154;SDS011;25875;48.202;16.334;2022-12-29T12:29:43;26.20;;;18.75;;
40154;SDS011;25875;48.202;16.334;2022-12-29T12:32:17;29.30;;;19.60;;
40154;SDS011;25875;48.202;16.334;2022-12-29T12:34:51;28.08;;;18.88;;
40154;SDS011;25875;48.202;16.334;2022-12-29T12:37:31;26.67;;;19.20;;
40154;SDS011;25875;48.202;16.334;2022-12-29T12:43:24;27.08;;;18.92;;
40154;SDS011;25875;48.202;16.334;2022-12-29T12:46:07;28.73;;;18.58;;
40154;SDS011;25875;48.202;16.334;2022-12-29T12:48:54;29.70;;;20.15;;
40154;SDS011;25875;48.202;16.334;2022-12-29T12:51:36;28.98;;;20.38;;
40154;SDS011;25875;48.202;16.334;2022-12-29T12:54:17;30.98;;;19.73;;
40154;SDS011;25875;48.202;16.334;2022-12-29T12:57:00;29.25;;;20.23;;
40154;SDS011;25875;48.202;16.334;2022-12-29T12:59:36;28.42;;;18.50;;
40154;SDS011;25875;48.202;16.334;2022-12-29T13:02:14;28.55;;;20.58;;
40154;SDS011;25875;48.202;16.334;2022-12-29T13:04:56;32.13;;;20.45;;
40154;SDS011;25875;48.202;16.334;2022-12-29T13:10:16;29.40;;;19.83;;
40154;SDS011;25875;48.202;16.334;2022-12-29T13:12:50;36.42;;;23.33;;
40154;SDS011;25875;48.202;16.334;2022-12-29T13:15:26;28.05;;;19.35;;
40154;SDS011;25875;48.202;16.334;2022-12-29T13:18:10;26.48;;;18.92;;
40154;SDS011;25875;48.202;16.334;2022-12-29T13:20:45;24.13;;;18.08;;
40154;SDS011;25875;48.202;16.334;2022-12-29T13:23:23;31.13;;;19.85;;
40154;SDS011;25875;48.202;16.334;2022-12-29T13:25:58;29.20;;;19.27;;
40154;SDS011;25875;48.202;16.334;2022-12-29T13:28:32;31.70;;;19.80;;
40154;SDS011;25875;48.202;16.334;2022-12-29T13:31:07;33.38;;;20.77;;
40154;SDS011;25875;48.202;16.334;2022-12-29T13:33:40;30.63;;;20.13;;
40154;SDS011;25875;48.202;16.334;2022-12-29T13:36:18;26.98;;;18.92;;
40154;SDS011;25875;48.202;16.334;2022-12-29T13:41:25;29.35;;;19.90;;
40154;SDS011;25875;48.202;16.334;2022-12-29T13:43:57;33.25;;;22.38;;
40154;SDS011;25875;48.202;16.334;2022-12-29T13:46:27;29.90;;;20.38;;
40154;SDS011;25875;48.202;16.334;2022-12-29T13:48:58;30.25;;;22.33;;
40154;SDS011;25875;48.202;16.334;2022-12-29T13:51:28;28.80;;;19.15;;
40154;SDS011;25875;48.202;16.334;2022-12-29T13:54:11;28.90;;;21.25;;
40154;SDS011;25875;48.202;16.334;2022-12-29T13:56:47;29.75;;;20.10;;
40154;SDS011;25875;48.202;16.334;2022-12-29T13:59:20;30.98;;;20.77;;
40154;SDS011;25875;48.202;16.334;2022-12-29T14:04:23;28.90;;;19.52;;
40154;SDS011;25875;48.202;16.334;2022-12-29T14:06:58;28.65;;;20.48;;
40154;SDS011;25875;48.202;16.334;2022-12-29T14:09:33;32.25;;;20.90;;
40154;SDS011;25875;48.202;16.334;2022-12-29T14:12:18;28.13;;;19.58;;
40154;SDS011;25875;48.202;16.334;2022-12-29T14:14:47;28.88;;;20.67;;
40154;SDS011;25875;48.202;16.334;2022-12-29T14:17:16;29.33;;;20.75;;
40154;SDS011;25875;48.202;16.334;2022-12-29T14:19:51;30.98;;;21.08;;
40154;SDS011;25875;48.202;16.334;2022-12-29T14:22:22;30.60;;;21.00;;
40154;SDS011;25875;48.202;16.334;2022-12-29T14:24:53;32.15;;;19.63;;
40154;SDS011;25875;48.202;16.334;2022-12-29T14:33:27;27.15;;;20.45;;
40154;SDS011;25875;48.202;16.334;2022-12-29T14:35:56;36.30;;;22.90;;
40154;SDS011;25875;48.202;16.334;2022-12-29T14:38:24;30.20;;;20.67;;
40154;SDS011;25875;48.202;16.334;2022-12-29T14:43:53;28.88;;;19.90;;
40154;SDS011;25875;48.202;16.334;2022-12-29T14:46:23;28.13;;;19.40;;
40154;SDS011;25875;48.202;16.334;2022-12-29T14:48:54;29.08;;;21.13;;
40154;SDS011;25875;48.202;16.334;2022-12-29T14:51:29;27.38;;;19.63;;
40154;SDS011;25875;48.202;16.334;2022-12-29T14:53:58;30.23;;;21.35;;
40154;SDS011;25875;48.202;16.334;2022-12-29T14:56:27;27.17;;;19.83;;
40154;SDS011;25875;48.202;16.334;2022-12-29T14:58:57;31.40;;;21.63;;
40154;SDS011;25875;48.202;16.334;2022-12-29T15:01:33;27.83;;;19.17;;
40154;SDS011;25875;48.202;16.334;2022-12-29T15:04:12;29.15;;;20.08;;
40154;SDS011;25875;48.202;16.334;2022-12-29T15:06:41;33.22;;;21.88;;
40154;SDS011;25875;48.202;16.334;2022-12-29T15:09:12;29.75;;;21.67;;